createdAt,value
2022-09-01T00:00:01.723Z,14.87
2022-09-01T00:02:31.658Z,13.10
2022-09-01T00:04:59.832Z,15.10
2022-09-01T00:07:30.674Z,13.10
2022-09-01T00:09:59.077Z,14.20
2022-09-01T00:12:27.886Z,14.33
2022-09-01T00:14:55.826Z,14.37
2022-09-01T00:17:23.901Z,13.93
2022-09-01T00:19:53.296Z,15.40
2022-09-01T00:22:21.425Z,15.63
2022-09-01T00:24:49.730Z,15.17
2022-09-01T00:27:18.136Z,15.90
2022-09-01T00:29:49.726Z,16.70
2022-09-01T00:32:17.671Z,16.00
2022-09-01T00:34:45.586Z,16.20
2022-09-01T00:37:15.068Z,18.43
2022-09-01T00:39:42.962Z,17.60
2022-09-01T00:42:11.287Z,17.97
2022-09-01T00:44:39.341Z,19.40
2022-09-01T00:47:07.829Z,18.43
2022-09-01T00:49:39.803Z,17.17
2022-09-01T00:52:11.749Z,17.97
2022-09-01T00:54:44.558Z,18.73
2022-09-01T00:57:13.847Z,18.97
2022-09-01T00:59:48.006Z,17.50
2022-09-01T01:02:16.440Z,17.90
2022-09-01T01:04:46.256Z,18.60
2022-09-01T01:07:15.648Z,19.77
2022-09-01T01:09:47.210Z,18.43
2022-09-01T01:12:18.422Z,20.00
2022-09-01T01:14:50.245Z,18.93
2022-09-01T01:17:19.402Z,18.77
2022-09-01T01:20:08.845Z,17.97
2022-09-01T01:23:03.370Z,18.43
2022-09-01T01:25:35.781Z,18.67
2022-09-01T01:28:16.575Z,19.37
2022-09-01T01:30:51.030Z,19.00
2022-09-01T01:33:19.782Z,18.77
2022-09-01T01:35:51.590Z,18.57
2022-09-01T01:38:22.740Z,20.83
2022-09-01T01:40:53.728Z,20.50
2022-09-01T01:43:23.026Z,19.67
2022-09-01T01:45:53.029Z,21.50
2022-09-01T01:48:23.868Z,22.70
2022-09-01T01:50:52.616Z,24.57
2022-09-01T01:53:21.482Z,22.60
2022-09-01T01:55:50.813Z,22.90
2022-09-01T01:58:21.920Z,22.67
2022-09-01T02:00:51.694Z,24.07
2022-09-01T02:03:22.884Z,22.63
2022-09-01T02:05:53.258Z,21.70
2022-09-01T02:08:25.881Z,22.70
2022-09-01T02:10:55.740Z,22.40
2022-09-01T02:13:31.166Z,23.13
2022-09-01T02:16:03.440Z,22.13
2022-09-01T02:18:35.967Z,23.17
2022-09-01T02:21:14.996Z,23.83
2022-09-01T02:23:46.821Z,24.23
2022-09-01T02:26:17.415Z,24.30
2022-09-01T02:28:55.787Z,23.47
2022-09-01T02:31:24.852Z,23.10
2022-09-01T02:33:54.391Z,25.20
2022-09-01T02:36:25.145Z,23.23
2022-09-01T02:38:56.549Z,22.93
2022-09-01T02:41:29.222Z,25.10
2022-09-01T02:44:02.171Z,22.40
2022-09-01T02:46:30.366Z,23.63
2022-09-01T02:49:00.407Z,22.77
2022-09-01T02:51:28.349Z,21.60
2022-09-01T02:53:56.274Z,23.53
2022-09-01T02:56:27.467Z,23.87
2022-09-01T02:58:55.877Z,24.40
2022-09-01T03:01:29.327Z,21.20
2022-09-01T03:04:02.318Z,21.93
2022-09-01T03:06:34.246Z,22.33
2022-09-01T03:09:03.194Z,24.73
2022-09-01T03:11:33.174Z,21.30
2022-09-01T03:14:01.758Z,21.30
2022-09-01T03:16:31.634Z,22.40
2022-09-01T03:18:59.663Z,23.77
2022-09-01T03:21:28.088Z,22.10
2022-09-01T03:23:58.078Z,21.70
2022-09-01T03:26:26.119Z,22.67
2022-09-01T03:28:54.041Z,22.87
2022-09-01T03:31:22.399Z,23.00
2022-09-01T03:33:52.329Z,21.40
2022-09-01T03:36:20.216Z,21.47
2022-09-01T03:38:49.650Z,20.27
2022-09-01T03:41:19.661Z,20.57
2022-09-01T03:43:48.372Z,19.63
2022-09-01T03:46:20.330Z,20.23
2022-09-01T03:48:50.828Z,21.63
2022-09-01T03:51:22.761Z,20.97
2022-09-01T03:53:54.283Z,19.47
2022-09-01T03:56:24.628Z,20.50
2022-09-01T03:58:52.856Z,19.87
2022-09-01T04:01:21.909Z,21.63
2022-09-01T04:03:52.134Z,20.63
2022-09-01T04:06:24.003Z,20.20
2022-09-01T04:08:56.806Z,18.47
2022-09-01T04:11:25.603Z,21.00
2022-09-01T04:13:53.943Z,19.10
2022-09-01T04:16:41.673Z,20.30
2022-09-01T04:19:20.119Z,17.73
2022-09-01T04:21:51.649Z,20.03
2022-09-01T04:24:19.927Z,19.63
2022-09-01T04:26:49.600Z,20.93
2022-09-01T04:29:18.796Z,19.30
2022-09-01T04:31:53.534Z,19.23
2022-09-01T04:34:22.496Z,19.97
2022-09-01T04:36:56.775Z,19.13
2022-09-01T04:39:25.249Z,19.77
2022-09-01T04:41:54.090Z,19.10
2022-09-01T04:44:22.206Z,20.40
2022-09-01T04:46:50.803Z,21.87
2022-09-01T04:49:22.161Z,21.10
2022-09-01T04:51:54.292Z,20.33
2022-09-01T04:54:23.616Z,21.37
2022-09-01T04:56:52.784Z,20.47
2022-09-01T04:59:23.698Z,19.37
2022-09-01T05:01:54.818Z,20.10
2022-09-01T05:04:24.926Z,18.67
2022-09-01T05:06:59.617Z,18.40
2022-09-01T05:09:28.887Z,17.70
2022-09-01T05:11:57.897Z,18.40
2022-09-01T05:14:26.197Z,18.07
2022-09-01T05:16:58.749Z,17.20
2022-09-01T05:19:29.016Z,18.07
2022-09-01T05:21:59.971Z,17.63
2022-09-01T05:24:30.426Z,16.07
2022-09-01T05:26:58.930Z,16.90
2022-09-01T05:29:27.688Z,17.30
2022-09-01T05:31:56.142Z,17.47
2022-09-01T05:34:27.377Z,16.40
2022-09-01T05:36:57.436Z,17.50
2022-09-01T05:39:27.222Z,17.40
2022-09-01T05:41:55.559Z,18.10
2022-09-01T05:44:23.921Z,17.43
2022-09-01T05:46:53.469Z,16.80
2022-09-01T05:49:21.499Z,16.17
2022-09-01T05:51:53.110Z,17.07
2022-09-01T05:54:23.147Z,16.23
2022-09-01T05:56:53.575Z,17.37
2022-09-01T05:59:24.813Z,15.77
2022-09-01T06:01:54.723Z,15.97
2022-09-01T06:04:25.260Z,17.33
2022-09-01T06:07:06.948Z,16.37
2022-09-01T06:09:39.291Z,18.03
2022-09-01T06:12:09.744Z,17.97
2022-09-01T06:14:37.644Z,17.40
2022-09-01T06:17:11.649Z,17.63
2022-09-01T06:19:41.658Z,17.13
2022-09-01T06:22:10.535Z,17.10
2022-09-01T06:24:39.856Z,17.87
2022-09-01T06:27:09.955Z,17.20
2022-09-01T06:29:39.641Z,16.20
2022-09-01T06:32:09.675Z,17.30
2022-09-01T06:34:37.969Z,15.87
2022-09-01T06:37:06.957Z,15.40
2022-09-01T06:39:35.089Z,16.13
2022-09-01T06:42:05.962Z,16.40
2022-09-01T06:44:40.743Z,14.33
2022-09-01T06:47:09.435Z,15.60
2022-09-01T06:49:40.261Z,15.00
2022-09-01T06:52:08.505Z,14.30
2022-09-01T06:54:39.226Z,13.40
2022-09-01T06:59:57.022Z,12.90
2022-09-01T07:02:27.059Z,12.70
2022-09-01T07:04:55.991Z,13.40
2022-09-01T07:13:05.637Z,13.50
2022-09-01T07:18:44.633Z,11.70
2022-09-01T07:22:06.384Z,11.50
2022-09-01T07:24:18.169Z,9.87
2022-09-01T07:26:50.634Z,11.37
2022-09-01T07:29:22.667Z,10.00
2022-09-01T07:34:46.243Z,9.90
2022-09-01T07:38:47.414Z,8.90
2022-09-01T07:42:56.128Z,13.10
2022-09-01T07:43:12.914Z,7.47
2022-09-01T07:45:58.283Z,7.73
2022-09-01T07:49:01.796Z,7.40
2022-09-01T07:51:36.115Z,7.53
2022-09-01T07:54:05.738Z,7.43
2022-09-01T07:56:39.442Z,7.60
2022-09-01T07:59:08.169Z,7.37
2022-09-01T08:01:37.337Z,6.60
2022-09-01T08:04:06.803Z,7.30
2022-09-01T08:06:39.419Z,7.40
2022-09-01T08:09:11.546Z,6.87
2022-09-01T08:12:00.995Z,6.60
2022-09-01T08:14:33.491Z,7.80
2022-09-01T08:17:16.899Z,6.43
2022-09-01T08:19:47.387Z,7.90
2022-09-01T08:22:15.789Z,6.77
2022-09-01T08:24:44.052Z,7.10
2022-09-01T08:27:11.910Z,6.90
2022-09-01T08:29:39.805Z,5.63
2022-09-01T08:32:07.755Z,6.03
2022-09-01T08:34:37.426Z,5.80
2022-09-01T08:37:07.705Z,7.13
2022-09-01T08:39:35.651Z,5.90
2022-09-01T08:42:12.239Z,5.63
2022-09-01T08:44:45.818Z,6.10
2022-09-01T08:47:27.831Z,6.10
2022-09-01T08:49:56.213Z,6.33
2022-09-01T08:52:32.124Z,6.67
2022-09-01T08:55:04.023Z,5.53
2022-09-01T08:57:34.470Z,6.17
2022-09-01T09:00:02.404Z,6.33
2022-09-01T09:02:53.310Z,5.60
2022-09-01T09:05:32.991Z,5.73
2022-09-01T09:08:37.975Z,5.83
2022-09-01T09:11:11.364Z,6.47
2022-09-01T09:13:53.754Z,5.67
2022-09-01T09:16:26.813Z,6.17
2022-09-01T09:18:59.823Z,5.40
2022-09-01T09:21:34.409Z,5.63
2022-09-01T09:24:10.032Z,5.47
2022-09-01T09:26:45.230Z,6.00
2022-09-01T09:29:13.203Z,5.10
2022-09-01T09:31:50.051Z,5.63
2022-09-01T09:34:35.526Z,5.67
2022-09-01T09:37:22.208Z,5.27
2022-09-01T09:40:10.245Z,5.60
2022-09-01T09:42:39.845Z,5.33
2022-09-01T09:45:22.977Z,5.47
2022-09-01T09:47:50.932Z,5.33
2022-09-01T09:50:23.622Z,4.60
2022-09-01T09:52:53.928Z,4.83
2022-09-01T09:55:26.508Z,4.50
2022-09-01T09:57:58.849Z,4.90
2022-09-01T10:00:29.076Z,4.83
2022-09-01T10:03:00.443Z,4.20
2022-09-01T10:05:36.296Z,4.73
2022-09-01T10:08:05.345Z,4.93
2022-09-01T10:10:42.302Z,4.63
2022-09-01T10:13:13.804Z,4.23
2022-09-01T10:15:44.601Z,4.80
2022-09-01T10:18:21.822Z,4.10
2022-09-01T10:21:01.758Z,4.83
2022-09-01T10:23:32.338Z,5.10
2022-09-01T10:26:06.452Z,4.60
2022-09-01T10:28:44.301Z,4.37
2022-09-01T10:31:18.378Z,4.97
2022-09-01T10:33:46.690Z,4.70
2022-09-01T10:36:16.794Z,4.73
2022-09-01T10:38:52.770Z,3.80
2022-09-01T10:42:00.922Z,4.20
2022-09-01T10:44:34.080Z,3.97
2022-09-01T10:47:06.161Z,4.97
2022-09-01T10:50:01.620Z,4.70
2022-09-01T10:52:55.572Z,4.60
2022-09-01T10:55:26.963Z,4.10
2022-09-01T11:01:26.106Z,4.77
2022-09-01T11:04:04.810Z,4.73
2022-09-01T11:07:11.551Z,5.00
2022-09-01T11:09:35.906Z,4.53
2022-09-01T11:12:48.142Z,4.20
2022-09-01T11:15:39.498Z,4.83
2022-09-01T11:18:15.910Z,5.00
2022-09-01T11:20:48.239Z,5.10
2022-09-01T11:23:25.144Z,5.43
2022-09-01T11:28:44.087Z,4.00
2022-09-01T11:31:30.050Z,3.97
2022-09-01T11:34:06.674Z,4.33
2022-09-01T11:36:36.427Z,4.27
2022-09-01T11:39:08.923Z,3.90
2022-09-01T11:41:57.447Z,4.43
2022-09-01T11:44:34.816Z,5.00
2022-09-01T11:47:12.121Z,4.67
2022-09-01T11:49:49.788Z,3.90
2022-09-01T11:52:19.252Z,4.10
2022-09-01T11:54:47.663Z,4.13
2022-09-01T11:57:25.165Z,4.53
2022-09-01T11:59:53.637Z,4.37
2022-09-01T12:02:25.253Z,3.63
2022-09-01T12:04:54.783Z,3.93
2022-09-01T12:07:30.290Z,4.40
2022-09-01T12:09:58.311Z,3.70
2022-09-01T12:12:32.488Z,3.77
2022-09-01T12:15:06.128Z,3.97
2022-09-01T12:17:36.323Z,3.83
2022-09-01T12:20:29.663Z,3.90
2022-09-01T12:22:59.165Z,3.73
2022-09-01T12:25:29.020Z,3.30
2022-09-01T12:27:57.506Z,4.10
2022-09-01T12:30:26.905Z,3.90
2022-09-01T12:35:47.089Z,3.50
2022-09-01T12:38:26.508Z,3.40
2022-09-01T12:40:56.615Z,3.57
2022-09-01T12:43:33.326Z,4.80
2022-09-01T12:46:02.905Z,3.87
2022-09-01T12:48:35.381Z,4.40
2022-09-01T12:51:07.056Z,5.30
2022-09-01T12:53:37.285Z,3.17
2022-09-01T12:56:29.742Z,6.77
2022-09-01T12:59:14.202Z,3.50
2022-09-01T13:01:45.645Z,3.97
2022-09-01T13:04:28.189Z,3.17
2022-09-01T13:07:01.474Z,3.27
2022-09-01T13:09:30.061Z,3.73
2022-09-01T13:12:17.057Z,3.70
2022-09-01T13:14:44.928Z,3.37
2022-09-01T13:17:14.347Z,3.07
2022-09-01T13:19:43.980Z,3.27
2022-09-01T13:22:12.209Z,3.10
2022-09-01T13:24:40.368Z,5.60
2022-09-01T13:27:24.139Z,3.33
2022-09-01T13:29:52.452Z,3.17
2022-09-01T13:32:22.511Z,3.10
2022-09-01T13:34:53.780Z,3.23
2022-09-01T13:37:22.730Z,3.57
2022-09-01T13:39:50.819Z,3.83
2022-09-01T13:42:19.002Z,5.33
2022-09-01T13:44:49.607Z,2.67
2022-09-01T13:47:34.553Z,3.53
2022-09-01T13:50:08.394Z,3.57
2022-09-01T13:52:38.690Z,3.63
2022-09-01T13:55:08.214Z,3.30
2022-09-01T13:57:36.975Z,3.33
2022-09-01T14:00:10.669Z,2.80
2022-09-01T14:02:39.121Z,3.87
2022-09-01T14:05:09.872Z,4.53
2022-09-01T14:07:37.790Z,3.90
2022-09-01T14:10:07.289Z,2.90
2022-09-01T14:12:35.440Z,3.07
2022-09-01T14:15:13.958Z,3.07
2022-09-01T14:17:45.361Z,3.07
2022-09-01T14:20:18.158Z,2.80
2022-09-01T14:22:46.565Z,3.03
2022-09-01T14:25:15.692Z,2.93
2022-09-01T14:27:44.596Z,3.57
2022-09-01T14:30:17.366Z,3.30
2022-09-01T14:32:45.788Z,3.07
2022-09-01T14:35:16.712Z,3.60
2022-09-01T14:37:45.594Z,2.83
2022-09-01T14:40:16.629Z,3.83
2022-09-01T14:42:49.385Z,3.80
2022-09-01T14:45:19.420Z,3.50
2022-09-01T14:47:48.307Z,3.17
2022-09-01T14:50:22.764Z,3.07
2022-09-01T14:52:54.280Z,3.33
2022-09-01T14:55:24.650Z,2.83
2022-09-01T14:57:54.696Z,4.13
2022-09-01T15:00:26.195Z,3.53
2022-09-01T15:02:55.740Z,2.50
2022-09-01T15:05:26.247Z,2.90
2022-09-01T15:07:55.278Z,5.17
2022-09-01T15:10:26.168Z,2.47
2022-09-01T15:12:56.373Z,2.50
2022-09-01T15:15:24.799Z,2.90
2022-09-01T15:17:53.076Z,2.67
2022-09-01T15:20:38.641Z,3.33
2022-09-01T15:23:08.521Z,4.00
2022-09-01T15:25:36.581Z,2.53
2022-09-01T15:28:06.055Z,3.00
2022-09-01T15:30:35.225Z,2.53
2022-09-01T15:33:03.205Z,3.50
2022-09-01T15:35:32.502Z,2.40
2022-09-01T15:38:01.293Z,2.90
2022-09-01T15:40:30.868Z,2.37
2022-09-01T15:43:00.074Z,3.00
2022-09-01T15:45:29.704Z,2.90
2022-09-01T15:47:57.662Z,3.00
2022-09-01T15:50:27.509Z,2.53
2022-09-01T15:52:58.500Z,2.90
2022-09-01T15:55:28.597Z,4.13
2022-09-01T15:57:58.883Z,2.60
2022-09-01T16:00:28.201Z,2.60
2022-09-01T16:03:01.483Z,3.97
2022-09-01T16:05:29.608Z,3.63
2022-09-01T16:07:57.567Z,2.70
2022-09-01T16:10:25.663Z,3.00
2022-09-01T16:12:53.571Z,2.43
2022-09-01T16:15:26.139Z,2.63
2022-09-01T16:18:27.669Z,4.37
2022-09-01T16:21:04.147Z,3.67
2022-09-01T16:23:40.611Z,4.57
2022-09-01T16:26:08.924Z,2.67
2022-09-01T16:28:38.805Z,2.40
2022-09-01T16:31:12.871Z,2.27
2022-09-01T16:33:43.743Z,3.10
2022-09-01T16:36:29.828Z,1.90
2022-09-01T16:39:05.053Z,2.07
2022-09-01T16:41:43.812Z,2.30
2022-09-01T16:44:24.841Z,3.20
2022-09-01T16:47:00.677Z,3.00
2022-09-01T16:49:33.950Z,3.30
2022-09-01T16:52:05.648Z,2.70
2022-09-01T16:54:49.674Z,2.27
2022-09-01T16:57:24.535Z,2.33
2022-09-01T16:59:56.050Z,2.03
2022-09-01T17:02:50.946Z,2.40
2022-09-01T17:05:25.769Z,3.53
2022-09-01T17:08:07.674Z,2.10
2022-09-01T17:10:42.430Z,3.50
2022-09-01T17:13:22.790Z,2.90
2022-09-01T17:15:56.088Z,3.13
2022-09-01T17:18:34.502Z,2.07
2022-09-01T17:21:09.905Z,2.43
2022-09-01T17:23:46.140Z,3.23
2022-09-01T17:26:19.718Z,2.33
2022-09-01T17:28:55.266Z,2.63
2022-09-01T17:31:51.277Z,2.53
2022-09-01T17:34:34.569Z,3.20
2022-09-01T17:37:14.969Z,3.23
2022-09-01T17:39:55.294Z,2.37
2022-09-01T17:42:30.461Z,3.40
2022-09-01T17:45:10.097Z,2.80
2022-09-01T17:47:47.302Z,2.20
2022-09-01T17:50:21.028Z,2.17
2022-09-01T17:52:58.500Z,3.37
2022-09-01T17:55:42.229Z,2.80
2022-09-01T17:58:19.869Z,3.20
2022-09-01T18:00:57.722Z,3.40
2022-09-01T18:03:40.310Z,2.67
2022-09-01T18:06:14.965Z,3.63
2022-09-01T18:08:44.966Z,3.37
2022-09-01T18:11:16.687Z,2.80
2022-09-01T18:13:53.163Z,2.47
2022-09-01T18:16:25.905Z,2.43
2022-09-01T18:18:54.905Z,2.90
2022-09-01T18:21:30.682Z,2.90
2022-09-01T18:24:14.003Z,2.63
2022-09-01T18:26:44.457Z,2.67
2022-09-01T18:29:12.421Z,3.67
2022-09-01T18:32:11.260Z,2.80
2022-09-01T18:35:14.494Z,3.43
2022-09-01T18:37:55.551Z,2.30
2022-09-01T18:40:29.300Z,4.73
2022-09-01T18:43:04.483Z,3.03
2022-09-01T18:45:43.706Z,3.67
2022-09-01T18:48:21.800Z,2.90
2022-09-01T18:50:58.031Z,3.43
2022-09-01T18:53:38.558Z,3.20
2022-09-01T18:56:17.309Z,4.10
2022-09-01T18:59:00.443Z,2.83
2022-09-01T19:01:34.303Z,3.17
2022-09-01T19:04:11.451Z,3.97
2022-09-01T19:06:52.497Z,3.17
2022-09-01T19:09:29.654Z,3.67
2022-09-01T19:12:10.432Z,2.93
2022-09-01T19:14:46.909Z,4.27
2022-09-01T19:17:34.833Z,2.80
2022-09-01T19:20:05.673Z,4.10
2022-09-01T19:22:41.877Z,2.80
2022-09-01T19:25:32.737Z,4.50
2022-09-01T19:28:07.210Z,3.80
2022-09-01T19:30:41.947Z,3.97
2022-09-01T19:33:14.625Z,3.10
2022-09-01T19:35:45.712Z,2.77
2022-09-01T19:38:20.020Z,4.50
2022-09-01T19:40:53.829Z,3.50
2022-09-01T19:43:22.117Z,3.97
2022-09-01T19:45:59.405Z,2.80
2022-09-01T19:48:33.984Z,2.60
2022-09-01T19:51:06.531Z,3.30
2022-09-01T19:53:44.124Z,5.00
2022-09-01T19:56:17.314Z,4.30
2022-09-01T19:58:52.696Z,3.47
2022-09-01T20:01:33.394Z,3.40
2022-09-01T20:04:07.746Z,3.30
2022-09-01T20:06:38.146Z,3.00
2022-09-01T20:09:12.465Z,3.30
2022-09-01T20:11:50.199Z,4.73
2022-09-01T20:14:45.616Z,2.90
2022-09-01T20:17:20.029Z,2.83
2022-09-01T20:19:55.313Z,3.70
2022-09-01T20:22:32.288Z,3.13
2022-09-01T20:25:08.436Z,3.20
2022-09-01T20:27:44.304Z,3.20
2022-09-01T20:30:15.425Z,3.40
2022-09-01T20:32:51.211Z,2.50
2022-09-01T20:35:24.414Z,3.50
2022-09-01T20:38:00.274Z,2.90
2022-09-01T20:40:32.527Z,3.30
2022-09-01T20:43:14.811Z,3.40
2022-09-01T20:45:43.254Z,3.10
2022-09-01T20:48:14.396Z,3.47
2022-09-01T20:50:56.417Z,3.03
2022-09-01T20:53:36.664Z,2.87
2022-09-01T20:56:12.265Z,2.93
2022-09-01T20:58:45.108Z,3.20
2022-09-01T21:01:19.194Z,3.93
2022-09-01T21:04:02.322Z,2.80
2022-09-01T21:06:49.456Z,3.30
2022-09-01T21:09:35.825Z,3.80
2022-09-01T21:12:09.092Z,4.70
2022-09-01T21:14:52.349Z,4.03
2022-09-01T21:17:30.888Z,3.10
2022-09-01T21:20:07.845Z,3.90
2022-09-01T21:22:35.973Z,3.30
2022-09-01T21:25:04.025Z,3.30
2022-09-01T21:27:36.903Z,6.10
2022-09-01T21:30:09.548Z,3.60
2022-09-01T21:32:39.612Z,3.10
2022-09-01T21:35:10.352Z,3.00
2022-09-01T21:37:38.485Z,4.00
2022-09-01T21:40:08.033Z,2.50
2022-09-01T21:42:39.506Z,3.07
2022-09-01T21:45:11.938Z,3.40
2022-09-01T21:47:40.877Z,4.80
2022-09-01T21:50:09.746Z,3.00
2022-09-01T21:52:37.836Z,2.83
2022-09-01T21:55:06.802Z,2.40
2022-09-01T21:57:36.394Z,2.73
2022-09-01T22:00:06.990Z,2.70
2022-09-01T22:02:37.377Z,4.40
2022-09-01T22:05:06.273Z,3.00
2022-09-01T22:07:35.785Z,4.30
2022-09-01T22:10:03.726Z,2.70
2022-09-01T22:12:31.629Z,2.80
2022-09-01T22:14:59.585Z,3.00
2022-09-01T22:17:27.535Z,2.87
2022-09-01T22:19:56.770Z,2.80
2022-09-01T22:22:24.791Z,2.17
2022-09-01T22:24:52.757Z,3.10
2022-09-01T22:27:20.734Z,4.30
2022-09-01T22:29:49.595Z,2.87
2022-09-01T22:32:17.472Z,2.70
2022-09-01T22:34:45.392Z,3.10
2022-09-01T22:37:14.670Z,2.97
2022-09-01T22:39:42.574Z,2.13
2022-09-01T22:42:10.504Z,2.80
2022-09-01T22:44:38.802Z,3.33
2022-09-01T22:47:07.350Z,3.27
2022-09-01T22:49:35.323Z,4.03
2022-09-01T22:52:04.057Z,2.47
2022-09-01T22:54:33.362Z,3.00
2022-09-01T22:57:02.139Z,3.73
2022-09-01T22:59:30.129Z,2.60
2022-09-01T23:01:58.139Z,2.10
2022-09-01T23:04:26.161Z,2.47
2022-09-01T23:06:55.037Z,3.33
2022-09-01T23:09:24.164Z,4.00
2022-09-01T23:11:53.506Z,4.03
2022-09-01T23:14:21.439Z,3.37
2022-09-01T23:16:51.495Z,3.70
2022-09-01T23:19:20.150Z,5.40
2022-09-01T23:21:48.696Z,2.70
2022-09-01T23:24:17.168Z,3.60
2022-09-01T23:26:48.308Z,2.90
2022-09-01T23:29:17.867Z,3.63
2022-09-01T23:31:46.211Z,2.50
2022-09-01T23:34:17.048Z,2.87
2022-09-01T23:36:44.948Z,4.17
2022-09-01T23:39:12.905Z,2.63
2022-09-01T23:41:41.443Z,2.90
2022-09-01T23:44:10.801Z,2.70
2022-09-01T23:46:42.906Z,3.33
2022-09-01T23:49:11.958Z,4.40
2022-09-01T23:51:40.788Z,2.63
2022-09-01T23:54:09.097Z,4.53
2022-09-01T23:56:38.766Z,3.47
2022-09-01T23:59:07.909Z,2.70
